LBA weather

Leeds Bradford Airport
Leeds, England, United Kingdom

Public forecast

Using degrees Celsius for public forecast. Weather courtesy of forecast.io.

Current aviation weather report (METAR) for Leeds Bradford Airport

Report is more than 2 hours old.

Retrieved 2020/03/31 14:50 UTC (5 hours ago):

EGNM 311450Z VRB03KT 9999 BKN037 08/02 Q1032

Aviation forecast (TAF) for Leeds Bradford Airport

Forecast is more than 6 hours old.

Retrieved 2020/03/31 12:00 UTC (8 hours ago):

TAF EGNM 311059Z 3112/3116 03004KT 9999 BKN020 PROB30 TEMPO 3112/3116 7000 -SHRA BKN008